Time;durP1;ratioP1;P1;durP2;ratioP2;P2;SDS_P1;SDS_P2;PMS_P1;PMS_P2;Temp;Humidity;BMP_temperature;BMP_pressure;BME280_temperature;BME280_humidity;BME280_pressure;Samples;Min_cycle;Max_cycle;Signal;HPM_P1;HPM_P2
2022/12/23 00:00:57;;;;;;;118.57;46.80;;;;;;;;;;5076320;28;20044;-77
2022/12/23 00:03:42;;;;;;;108.07;43.53;;;;;;;;;;5081698;28;20024;-76
2022/12/23 00:06:28;;;;;;;102.85;44.10;;;;;;;;;;5096797;28;20373;-76
2022/12/23 00:09:13;;;;;;;129.10;49.40;;;;;;;;;;5082022;28;20016;-77
2022/12/23 00:15:06;;;;;;;137.75;46.97;;;;;;;;;;5095464;28;20031;-77
2022/12/23 00:17:51;;;;;;;131.27;44.85;;;;;;;;;;5081667;28;20020;-78
2022/12/23 00:20:37;;;;;;;137.40;46.83;;;;;;;;;;5095678;28;20127;-77
2022/12/23 00:23:23;;;;;;;123.43;43.83;;;;;;;;;;5095789;28;20020;-77
2022/12/23 00:26:16;;;;;;;125.28;43.38;;;;;;;;;;5095315;28;20035;-77
2022/12/23 00:29:01;;;;;;;133.40;46.38;;;;;;;;;;5096113;28;20051;-77
2022/12/23 00:31:47;;;;;;;132.05;44.85;;;;;;;;;;5095906;28;20096;-76
2022/12/23 00:34:32;;;;;;;130.23;45.75;;;;;;;;;;5095468;28;20284;-77
2022/12/23 00:37:18;;;;;;;146.98;46.35;;;;;;;;;;5095371;28;20024;-77
2022/12/23 00:43:08;;;;;;;114.85;42.03;;;;;;;;;;5095795;28;20027;-77
2022/12/23 00:45:53;;;;;;;116.32;43.10;;;;;;;;;;5096534;28;20484;-77
2022/12/23 00:51:43;;;;;;;123.80;41.83;;;;;;;;;;5095589;28;20031;-76
2022/12/23 00:54:30;;;;;;;125.03;43.65;;;;;;;;;;5095734;28;20035;-77
2022/12/23 00:57:16;;;;;;;123.70;43.83;;;;;;;;;;5094134;28;20111;-77
2022/12/23 01:00:02;;;;;;;128.20;43.90;;;;;;;;;;5094818;28;20099;-77
2022/12/23 01:05:55;;;;;;;118.28;42.83;;;;;;;;;;5096263;28;20361;-76
2022/12/23 01:08:41;;;;;;;129.15;42.33;;;;;;;;;;5081807;28;20031;-77
2022/12/23 01:11:27;;;;;;;131.57;43.17;;;;;;;;;;5094194;28;20012;-77
2022/12/23 01:14:13;;;;;;;125.55;42.97;;;;;;;;;;5095076;28;20016;-76
2022/12/23 01:16:58;;;;;;;131.45;43.88;;;;;;;;;;5094997;28;20027;-77
2022/12/23 01:19:44;;;;;;;131.60;43.63;;;;;;;;;;5080520;28;20016;-77
2022/12/23 01:22:30;;;;;;;134.88;45.90;;;;;;;;;;5094170;28;20024;-77
2022/12/23 01:25:15;;;;;;;130.10;43.85;;;;;;;;;;5094803;28;20504;-77
2022/12/23 01:28:01;;;;;;;130.98;42.25;;;;;;;;;;5093890;28;20022;-76
2022/12/23 01:30:46;;;;;;;121.82;43.75;;;;;;;;;;5095101;28;20373;-76
2022/12/23 01:33:32;;;;;;;139.65;44.20;;;;;;;;;;5094305;28;20118;-77
2022/12/23 01:36:19;;;;;;;121.47;42.75;;;;;;;;;;5094341;28;20016;-77
2022/12/23 01:39:04;;;;;;;125.88;43.03;;;;;;;;;;5094311;28;20020;-77
2022/12/23 01:45:17;;;;;;;128.57;42.72;;;;;;;;;;5093843;28;20036;-77
2022/12/23 01:48:09;;;;;;;126.03;44.72;;;;;;;;;;5080339;28;20099;-77
2022/12/23 01:50:57;;;;;;;129.40;42.90;;;;;;;;;;5093034;28;20095;-77
2022/12/23 01:53:46;;;;;;;114.80;40.97;;;;;;;;;;5093539;28;20020;-77
2022/12/23 01:56:34;;;;;;;120.40;41.50;;;;;;;;;;5094360;28;20122;-77
2022/12/23 02:05:29;;;;;;;130.00;43.40;;;;;;;;;;5094404;28;20492;-77
2022/12/23 02:11:22;;;;;;;123.63;42.03;;;;;;;;;;5094159;28;20361;-77
2022/12/23 02:17:41;;;;;;;135.05;43.42;;;;;;;;;;5094110;28;20089;-76
2022/12/23 02:20:45;;;;;;;124.10;42.30;;;;;;;;;;5079825;28;20052;-77
2022/12/23 02:23:51;;;;;;;116.20;41.60;;;;;;;;;;5094164;28;20020;-77
2022/12/23 02:26:53;;;;;;;126.30;42.70;;;;;;;;;;5090395;28;20370;-77
2022/12/23 02:29:58;;;;;;;121.28;41.80;;;;;;;;;;5079041;28;20508;-77
2022/12/23 02:33:04;;;;;;;133.68;41.28;;;;;;;;;;5080539;28;20155;-77
2022/12/23 02:36:08;;;;;;;134.80;47.03;;;;;;;;;;5079662;28;20031;-77
2022/12/23 02:39:06;;;;;;;126.63;47.08;;;;;;;;;;5094398;28;20016;-77
2022/12/23 02:41:54;;;;;;;126.93;48.83;;;;;;;;;;5079646;28;20328;-77
2022/12/23 02:44:43;;;;;;;129.52;48.72;;;;;;;;;;5078858;28;20419;-77
2022/12/23 02:47:36;;;;;;;124.28;50.47;;;;;;;;;;5079054;28;20055;-78
2022/12/23 02:50:29;;;;;;;127.47;50.97;;;;;;;;;;5094731;28;20024;-77
2022/12/23 02:53:20;;;;;;;131.55;52.95;;;;;;;;;;5093640;28;20035;-76
2022/12/23 02:56:06;;;;;;;139.52;55.30;;;;;;;;;;5094810;28;20023;-77
2022/12/23 02:58:55;;;;;;;133.18;55.65;;;;;;;;;;5094238;28;20024;-77
2022/12/23 03:01:41;;;;;;;121.20;53.13;;;;;;;;;;5080333;28;20340;-77
2022/12/23 03:04:27;;;;;;;111.38;52.38;;;;;;;;;;5073896;28;20039;-78
2022/12/23 03:07:17;;;;;;;118.20;52.92;;;;;;;;;;5073924;28;20082;-77
2022/12/23 03:10:09;;;;;;;110.90;49.38;;;;;;;;;;5059696;28;20107;-77
2022/12/23 03:13:04;;;;;;;97.53;45.00;;;;;;;;;;5074646;28;20036;-76
2022/12/23 03:15:58;;;;;;;102.60;45.10;;;;;;;;;;5059475;28;20113;-77
2022/12/23 03:18:49;;;;;;;101.88;45.45;;;;;;;;;;5058737;28;20426;-78
2022/12/23 03:21:39;;;;;;;100.50;44.15;;;;;;;;;;5073699;28;20028;-77
2022/12/23 03:24:43;;;;;;;89.82;43.17;;;;;;;;;;5059119;28;20021;-76
2022/12/23 03:27:38;;;;;;;106.40;44.33;;;;;;;;;;5059353;28;20020;-77
2022/12/23 03:30:24;;;;;;;123.13;47.63;;;;;;;;;;5059606;28;20374;-77
2022/12/23 03:33:15;;;;;;;123.70;49.75;;;;;;;;;;5057982;28;20102;-76
2022/12/23 03:36:04;;;;;;;144.60;48.95;;;;;;;;;;5073954;28;20020;-77
2022/12/23 03:38:52;;;;;;;133.98;45.25;;;;;;;;;;5059345;28;20025;-76
2022/12/23 03:41:41;;;;;;;134.52;44.78;;;;;;;;;;5072924;28;20021;-76
2022/12/23 03:44:37;;;;;;;124.50;43.67;;;;;;;;;;5058692;28;20020;-77
2022/12/23 03:47:32;;;;;;;142.60;45.58;;;;;;;;;;5059323;28;20024;-77
2022/12/23 03:50:18;;;;;;;122.25;42.42;;;;;;;;;;5059123;28;20439;-78
2022/12/23 03:53:07;;;;;;;127.70;43.83;;;;;;;;;;5073978;28;20350;-76
2022/12/23 03:55:55;;;;;;;117.30;42.50;;;;;;;;;;5059713;28;20123;-77
2022/12/23 03:58:47;;;;;;;140.70;45.67;;;;;;;;;;5079999;28;20031;-77
2022/12/23 04:01:40;;;;;;;121.25;42.85;;;;;;;;;;5067813;28;20036;-77
2022/12/23 04:04:31;;;;;;;117.32;43.83;;;;;;;;;;5092355;28;20339;-77
2022/12/23 04:07:20;;;;;;;107.50;39.58;;;;;;;;;;5091854;28;20012;-77
2022/12/23 04:10:06;;;;;;;109.53;40.72;;;;;;;;;;5079700;28;20016;-77
2022/12/23 04:12:52;;;;;;;104.88;40.38;;;;;;;;;;5092636;28;20020;-77
2022/12/23 04:15:40;;;;;;;101.88;40.58;;;;;;;;;;5093292;28;20008;-76
2022/12/23 04:18:25;;;;;;;100.72;39.03;;;;;;;;;;5078566;28;20024;-77
2022/12/23 04:21:11;;;;;;;108.18;44.92;;;;;;;;;;5092896;28;20528;-77
2022/12/23 04:23:56;;;;;;;106.07;43.33;;;;;;;;;;5078443;28;20024;-77
2022/12/23 04:26:42;;;;;;;109.32;45.17;;;;;;;;;;5085903;28;20053;-76
2022/12/23 04:29:28;;;;;;;100.43;42.30;;;;;;;;;;5092901;28;20323;-76
2022/12/23 04:32:13;;;;;;;109.65;42.15;;;;;;;;;;5091068;28;20074;-76
2022/12/23 04:34:59;;;;;;;101.75;42.03;;;;;;;;;;5105759;28;20173;-76
2022/12/23 04:37:44;;;;;;;92.05;37.75;;;;;;;;;;5096150;28;20016;-77
2022/12/23 04:40:30;;;;;;;93.15;37.08;;;;;;;;;;5082124;28;20012;-77
2022/12/23 04:43:16;;;;;;;84.50;36.35;;;;;;;;;;5081120;28;20031;-77
2022/12/23 04:46:01;;;;;;;89.00;38.13;;;;;;;;;;5096255;28;20008;-77
2022/12/23 04:48:47;;;;;;;80.30;34.40;;;;;;;;;;5095731;28;20411;-76
2022/12/23 04:51:32;;;;;;;84.93;35.53;;;;;;;;;;5095152;28;20013;-75
2022/12/23 04:54:18;;;;;;;88.95;36.42;;;;;;;;;;5094831;28;20100;-76
2022/12/23 04:57:04;;;;;;;91.38;36.08;;;;;;;;;;5095433;28;20043;-77
2022/12/23 04:59:49;;;;;;;81.90;35.08;;;;;;;;;;5081523;28;20458;-76
2022/12/23 05:02:35;;;;;;;90.22;36.47;;;;;;;;;;5081048;28;20036;-76
2022/12/23 05:05:20;;;;;;;94.70;38.33;;;;;;;;;;5095847;28;20028;-77
2022/12/23 05:08:06;;;;;;;88.10;36.20;;;;;;;;;;5081942;28;20020;-78
2022/12/23 05:10:52;;;;;;;94.13;37.72;;;;;;;;;;5081638;28;20400;-75
2022/12/23 05:13:37;;;;;;;91.97;37.92;;;;;;;;;;5094990;28;20035;-76
2022/12/23 05:16:23;;;;;;;99.00;38.78;;;;;;;;;;5095376;28;20098;-78
2022/12/23 05:19:09;;;;;;;90.63;38.33;;;;;;;;;;5080836;28;20067;-76
2022/12/23 05:21:54;;;;;;;95.15;37.50;;;;;;;;;;5080694;28;20016;-77
2022/12/23 05:24:40;;;;;;;94.38;39.25;;;;;;;;;;5094352;28;20406;-75
2022/12/23 05:27:25;;;;;;;102.38;42.92;;;;;;;;;;5095191;28;20464;-76
2022/12/23 05:30:11;;;;;;;99.00;40.95;;;;;;;;;;5094501;28;20020;-75
2022/12/23 05:32:57;;;;;;;102.68;41.78;;;;;;;;;;5094998;28;20031;-76
2022/12/23 05:35:42;;;;;;;106.35;44.08;;;;;;;;;;5094164;28;20485;-74
2022/12/23 05:38:28;;;;;;;111.78;44.25;;;;;;;;;;5094999;28;20043;-76
2022/12/23 05:41:14;;;;;;;98.82;43.88;;;;;;;;;;5080515;28;20060;-76
2022/12/23 05:44:00;;;;;;;99.40;43.75;;;;;;;;;;5079169;28;20035;-76
2022/12/23 05:46:46;;;;;;;106.78;44.22;;;;;;;;;;5094468;28;20095;-74
2022/12/23 05:49:31;;;;;;;116.97;45.35;;;;;;;;;;5095022;28;20027;-75
2022/12/23 05:52:17;;;;;;;123.15;49.88;;;;;;;;;;5094351;28;20020;-75
2022/12/23 05:55:03;;;;;;;126.90;50.03;;;;;;;;;;5094727;28;20024;-73
2022/12/23 05:57:48;;;;;;;127.82;50.40;;;;;;;;;;5079316;28;20031;-75
2022/12/23 06:00:34;;;;;;;121.55;50.38;;;;;;;;;;5080255;28;20082;-74
2022/12/23 06:03:20;;;;;;;132.15;53.25;;;;;;;;;;5094535;28;20077;-75
2022/12/23 06:06:06;;;;;;;124.85;49.13;;;;;;;;;;5079773;28;20016;-76
2022/12/23 06:08:52;;;;;;;113.10;45.30;;;;;;;;;;5093708;28;20020;-75
2022/12/23 06:11:37;;;;;;;97.32;41.65;;;;;;;;;;5094008;28;20008;-75
2022/12/23 06:14:23;;;;;;;95.90;40.70;;;;;;;;;;5094957;28;20311;-75
2022/12/23 06:17:08;;;;;;;85.38;39.00;;;;;;;;;;5095263;28;20028;-76
2022/12/23 06:19:54;;;;;;;87.07;36.42;;;;;;;;;;5095835;28;20024;-77
2022/12/23 06:22:39;;;;;;;94.97;41.72;;;;;;;;;;5093712;28;20059;-75
2022/12/23 06:25:25;;;;;;;102.32;44.30;;;;;;;;;;5094826;28;20469;-77
2022/12/23 06:28:11;;;;;;;99.30;42.13;;;;;;;;;;5094218;28;20035;-76
2022/12/23 06:30:56;;;;;;;96.15;43.63;;;;;;;;;;5093882;28;20123;-77
2022/12/23 06:33:42;;;;;;;98.05;42.38;;;;;;;;;;5094375;28;20020;-76
2022/12/23 06:36:28;;;;;;;99.47;41.45;;;;;;;;;;5093875;28;20437;-75
2022/12/23 06:39:13;;;;;;;97.45;42.88;;;;;;;;;;5093848;28;20036;-75
2022/12/23 06:41:59;;;;;;;96.45;44.20;;;;;;;;;;5092990;28;20115;-75
2022/12/23 06:44:45;;;;;;;102.65;44.13;;;;;;;;;;5094177;28;20392;-75
2022/12/23 06:47:31;;;;;;;84.78;40.88;;;;;;;;;;5093671;28;20016;-75
2022/12/23 06:50:16;;;;;;;91.60;40.78;;;;;;;;;;5093746;28;20031;-79
2022/12/23 06:53:02;;;;;;;88.80;41.45;;;;;;;;;;5093054;28;20493;-77
2022/12/23 06:55:47;;;;;;;95.75;43.00;;;;;;;;;;5093259;28;20035;-76
2022/12/23 06:58:33;;;;;;;87.50;42.92;;;;;;;;;;5093055;28;20062;-76
2022/12/23 07:01:19;;;;;;;99.72;44.40;;;;;;;;;;5093117;28;20140;-77
2022/12/23 07:04:05;;;;;;;105.15;46.28;;;;;;;;;;5093421;28;20024;-77
2022/12/23 07:06:51;;;;;;;105.88;49.50;;;;;;;;;;5078411;28;20460;-76
2022/12/23 07:09:36;;;;;;;102.65;48.72;;;;;;;;;;5077978;28;20031;-76
2022/12/23 07:12:22;;;;;;;104.18;48.50;;;;;;;;;;5092933;28;20012;-77
2022/12/23 07:15:08;;;;;;;92.72;43.85;;;;;;;;;;5078407;28;20012;-76
2022/12/23 07:17:53;;;;;;;91.00;45.33;;;;;;;;;;5078311;28;20028;-77
2022/12/23 07:20:39;;;;;;;100.63;48.83;;;;;;;;;;5093270;28;20029;-77
2022/12/23 07:23:25;;;;;;;126.10;58.60;;;;;;;;;;5079753;28;20025;-77
2022/12/23 07:26:10;;;;;;;128.35;62.35;;;;;;;;;;5093092;28;20456;-76
2022/12/23 07:28:56;;;;;;;125.50;57.33;;;;;;;;;;5093238;28;20020;-77
2022/12/23 07:31:41;;;;;;;123.85;57.80;;;;;;;;;;5078277;28;20438;-76
2022/12/23 07:34:27;;;;;;;123.75;59.65;;;;;;;;;;5092657;28;20445;-77
2022/12/23 07:37:13;;;;;;;115.05;54.75;;;;;;;;;;5093596;28;20035;-75
2022/12/23 07:39:58;;;;;;;111.78;54.45;;;;;;;;;;5078826;28;20020;-75
2022/12/23 07:42:47;;;;;;;112.43;54.88;;;;;;;;;;5077824;28;20077;-76
2022/12/23 07:45:32;;;;;;;110.85;53.58;;;;;;;;;;5093635;28;20061;-76
2022/12/23 07:48:18;;;;;;;110.80;53.20;;;;;;;;;;5092746;28;20027;-76
2022/12/23 07:51:04;;;;;;;108.03;49.42;;;;;;;;;;5092812;28;20022;-76
2022/12/23 07:53:50;;;;;;;113.60;52.40;;;;;;;;;;5092665;28;20020;-75
2022/12/23 07:56:35;;;;;;;103.53;52.33;;;;;;;;;;5078213;28;20020;-75
2022/12/23 07:59:24;;;;;;;103.78;49.40;;;;;;;;;;5092520;28;20020;-75
2022/12/23 08:02:10;;;;;;;102.47;48.25;;;;;;;;;;5092658;28;20054;-74
2022/12/23 08:04:56;;;;;;;101.72;47.88;;;;;;;;;;5078742;28;20366;-74
2022/12/23 08:07:43;;;;;;;125.53;56.67;;;;;;;;;;5082701;28;20039;-74
2022/12/23 08:10:29;;;;;;;124.68;59.03;;;;;;;;;;5096830;28;20351;-76
2022/12/23 08:13:14;;;;;;;122.82;59.00;;;;;;;;;;5096778;28;20028;-76
2022/12/23 08:16:01;;;;;;;128.18;59.80;;;;;;;;;;5096596;28;20114;-75
2022/12/23 08:18:46;;;;;;;125.70;58.88;;;;;;;;;;5096565;28;20085;-74
2022/12/23 08:21:32;;;;;;;100.38;48.78;;;;;;;;;;5081300;28;20063;-75
2022/12/23 08:24:17;;;;;;;106.25;48.55;;;;;;;;;;5096961;28;20020;-75
2022/12/23 08:27:03;;;;;;;96.53;48.75;;;;;;;;;;5096118;28;20455;-74
2022/12/23 08:29:48;;;;;;;116.35;51.90;;;;;;;;;;5083812;28;20035;-75
2022/12/23 08:32:34;;;;;;;107.53;49.45;;;;;;;;;;5096336;28;20012;-76
2022/12/23 08:35:20;;;;;;;105.00;49.65;;;;;;;;;;5081684;28;20024;-75
2022/12/23 08:38:05;;;;;;;96.40;46.15;;;;;;;;;;5080599;28;20369;-76
2022/12/23 08:40:51;;;;;;;91.15;45.72;;;;;;;;;;5095811;28;20353;-75
2022/12/23 08:43:37;;;;;;;96.85;46.63;;;;;;;;;;5096651;28;20118;-76
2022/12/23 08:46:22;;;;;;;102.95;51.15;;;;;;;;;;5095874;28;20362;-75
2022/12/23 08:49:08;;;;;;;106.18;53.08;;;;;;;;;;5095352;28;20525;-75
2022/12/23 08:51:54;;;;;;;95.07;48.53;;;;;;;;;;5082640;28;20019;-76
2022/12/23 08:54:40;;;;;;;89.50;43.30;;;;;;;;;;5080128;28;20016;-76
2022/12/23 08:57:25;;;;;;;83.47;40.72;;;;;;;;;;5096236;28;20019;-76
2022/12/23 09:00:11;;;;;;;68.88;34.55;;;;;;;;;;5096001;28;20035;-76
2022/12/23 09:02:57;;;;;;;64.97;32.50;;;;;;;;;;5081368;28;20024;-75
2022/12/23 09:05:42;;;;;;;62.65;30.42;;;;;;;;;;5095372;28;20150;-75
2022/12/23 09:08:28;;;;;;;63.97;31.50;;;;;;;;;;5096366;28;20501;-75
2022/12/23 09:11:18;;;;;;;59.40;30.48;;;;;;;;;;5095703;28;20027;-76
2022/12/23 09:14:04;;;;;;;66.95;29.83;;;;;;;;;;5095979;28;20024;-75
2022/12/23 09:16:51;;;;;;;59.47;28.90;;;;;;;;;;5080281;28;20138;-75
2022/12/23 09:19:36;;;;;;;59.65;30.27;;;;;;;;;;5094990;28;20102;-75
2022/12/23 09:22:22;;;;;;;57.20;29.25;;;;;;;;;;5095290;28;20319;-75
2022/12/23 09:25:08;;;;;;;58.83;29.70;;;;;;;;;;5094780;28;20334;-75
2022/12/23 09:27:53;;;;;;;55.83;29.58;;;;;;;;;;5095013;28;20024;-75
2022/12/23 09:30:39;;;;;;;61.63;30.38;;;;;;;;;;5079683;28;20020;-75
2022/12/23 09:33:24;;;;;;;69.07;29.67;;;;;;;;;;5080533;28;20027;-75
2022/12/23 09:36:10;;;;;;;57.38;29.10;;;;;;;;;;5096159;28;20024;-76
2022/12/23 09:38:56;;;;;;;61.65;31.52;;;;;;;;;;5094642;28;20078;-74
2022/12/23 09:41:51;;;;;;;62.40;31.35;;;;;;;;;;5094676;28;20024;-76
2022/12/23 09:44:48;;;;;;;55.38;29.33;;;;;;;;;;5095191;28;20112;-76
2022/12/23 09:47:34;;;;;;;55.25;29.33;;;;;;;;;;5079147;28;20028;-75
2022/12/23 09:50:25;;;;;;;53.50;28.05;;;;;;;;;;5080156;28;20085;-75
2022/12/23 09:53:11;;;;;;;61.80;28.02;;;;;;;;;;5094377;28;20027;-75
2022/12/23 09:55:59;;;;;;;49.50;27.75;;;;;;;;;;5093928;28;20096;-76
2022/12/23 09:58:48;;;;;;;51.85;28.50;;;;;;;;;;5095362;28;20024;-76
2022/12/23 10:01:43;;;;;;;59.63;30.35;;;;;;;;;;5093888;28;20047;-73
2022/12/23 10:04:35;;;;;;;58.92;30.30;;;;;;;;;;5093962;28;20085;-76
2022/12/23 10:07:31;;;;;;;57.00;29.42;;;;;;;;;;5093879;28;20461;-77
2022/12/23 10:10:29;;;;;;;53.40;28.70;;;;;;;;;;5094057;28;20035;-78
2022/12/23 10:13:25;;;;;;;60.53;30.45;;;;;;;;;;5093576;28;20043;-77
2022/12/23 10:16:22;;;;;;;58.08;30.20;;;;;;;;;;5079910;28;20023;-76
2022/12/23 10:19:23;;;;;;;64.15;31.67;;;;;;;;;;5093779;28;20028;-79
2022/12/23 10:22:13;;;;;;;57.17;30.58;;;;;;;;;;5093651;28;20074;-75
2022/12/23 10:25:00;;;;;;;61.05;31.42;;;;;;;;;;5093941;28;20039;-76
2022/12/23 10:27:46;;;;;;;59.83;31.38;;;;;;;;;;5094339;28;20391;-75
2022/12/23 10:30:33;;;;;;;64.22;34.05;;;;;;;;;;5093669;28;20448;-76
2022/12/23 10:33:22;;;;;;;62.40;33.47;;;;;;;;;;5093753;28;20089;-75
2022/12/23 10:36:18;;;;;;;62.10;33.20;;;;;;;;;;5093533;28;20353;-75
2022/12/23 10:39:15;;;;;;;72.47;33.95;;;;;;;;;;5094053;28;20320;-78
2022/12/23 10:42:06;;;;;;;65.70;34.50;;;;;;;;;;5093590;28;20027;-76
2022/12/23 10:44:52;;;;;;;66.75;34.63;;;;;;;;;;5093960;28;20436;-76
2022/12/23 10:47:44;;;;;;;69.10;35.33;;;;;;;;;;5093928;28;20039;-75
2022/12/23 10:50:52;;;;;;;66.90;34.33;;;;;;;;;;5093621;28;20020;-76
2022/12/23 10:53:40;;;;;;;61.20;32.88;;;;;;;;;;5093459;28;20039;-76
2022/12/23 10:56:27;;;;;;;55.00;29.50;;;;;;;;;;5093866;28;20478;-75
2022/12/23 10:59:14;;;;;;;54.65;29.63;;;;;;;;;;5093984;28;20050;-76
2022/12/23 11:02:04;;;;;;;52.03;28.63;;;;;;;;;;5092994;28;20052;-77
2022/12/23 11:04:49;;;;;;;50.17;27.13;;;;;;;;;;5093149;28;20020;-75
2022/12/23 11:07:35;;;;;;;50.83;28.38;;;;;;;;;;5093996;28;20020;-76
2022/12/23 11:10:23;;;;;;;50.75;27.60;;;;;;;;;;5093558;28;20051;-77
2022/12/23 11:13:09;;;;;;;79.03;49.38;;;;;;;;;;5079168;28;20020;-75
2022/12/23 11:16:09;;;;;;;63.13;30.08;;;;;;;;;;5092939;28;20165;-75
2022/12/23 11:19:02;;;;;;;51.45;26.85;;;;;;;;;;5093638;28;20035;-76
2022/12/23 11:21:53;;;;;;;46.42;25.75;;;;;;;;;;5093351;28;20103;-74
2022/12/23 11:24:38;;;;;;;44.05;25.13;;;;;;;;;;5093340;28;20331;-76
2022/12/23 11:27:24;;;;;;;44.40;25.30;;;;;;;;;;5093886;28;20048;-76
2022/12/23 11:30:17;;;;;;;49.90;26.60;;;;;;;;;;5079331;28;20461;-75
2022/12/23 11:33:03;;;;;;;51.10;27.25;;;;;;;;;;5102975;28;20095;-75
2022/12/23 11:35:58;;;;;;;46.58;27.02;;;;;;;;;;5094966;28;20035;-75
2022/12/23 11:38:52;;;;;;;52.05;28.10;;;;;;;;;;5096149;28;20103;-75
2022/12/23 11:41:40;;;;;;;52.30;28.20;;;;;;;;;;5084336;28;20053;-75
2022/12/23 11:44:26;;;;;;;49.45;27.58;;;;;;;;;;5081731;28;20362;-75
2022/12/23 11:47:21;;;;;;;53.13;27.73;;;;;;;;;;5105386;28;20016;-76
2022/12/23 11:50:21;;;;;;;51.35;27.58;;;;;;;;;;5116183;28;20095;-75
2022/12/23 11:53:21;;;;;;;61.40;30.70;;;;;;;;;;5109431;28;20081;-73
2022/12/23 11:56:08;;;;;;;56.38;29.83;;;;;;;;;;5113212;28;20034;-75
2022/12/23 11:58:57;;;;;;;51.97;29.70;;;;;;;;;;5104328;28;20032;-74
2022/12/23 12:01:45;;;;;;;54.05;30.48;;;;;;;;;;5119123;28;20052;-74
2022/12/23 12:04:33;;;;;;;56.55;31.23;;;;;;;;;;5119630;28;20028;-75
2022/12/23 12:07:18;;;;;;;55.13;30.60;;;;;;;;;;5119778;28;20052;-74
2022/12/23 12:10:09;;;;;;;56.10;30.13;;;;;;;;;;5117248;28;20016;-76
2022/12/23 12:12:56;;;;;;;62.53;30.52;;;;;;;;;;5106133;28;20012;-77
2022/12/23 12:15:49;;;;;;;54.72;28.23;;;;;;;;;;5111656;28;20024;-77
2022/12/23 12:18:37;;;;;;;52.88;28.73;;;;;;;;;;5116631;28;20035;-75
2022/12/23 12:21:24;;;;;;;53.20;27.55;;;;;;;;;;5100205;28;20073;-75
2022/12/23 12:24:21;;;;;;;50.60;26.67;;;;;;;;;;5088881;28;20016;-75
2022/12/23 12:27:09;;;;;;;42.10;25.15;;;;;;;;;;5090421;28;20020;-75
2022/12/23 12:29:56;;;;;;;42.53;25.65;;;;;;;;;;5098982;28;20047;-77
2022/12/23 12:32:41;;;;;;;45.90;26.33;;;;;;;;;;5092582;28;20024;-77
2022/12/23 12:35:34;;;;;;;49.15;26.95;;;;;;;;;;5116187;28;20023;-77
2022/12/23 12:38:24;;;;;;;47.72;27.05;;;;;;;;;;5113402;28;20059;-76
2022/12/23 12:41:16;;;;;;;48.42;28.70;;;;;;;;;;5113617;28;20016;-76
2022/12/23 12:44:20;;;;;;;52.15;29.02;;;;;;;;;;5104440;28;20012;-78
2022/12/23 12:47:13;;;;;;;49.22;27.80;;;;;;;;;;5117783;28;20033;-76
2022/12/23 12:50:00;;;;;;;54.22;28.63;;;;;;;;;;5117077;28;20049;-76
2022/12/23 12:52:47;;;;;;;47.97;27.67;;;;;;;;;;5116604;28;20015;-76
2022/12/23 12:55:36;;;;;;;51.78;28.13;;;;;;;;;;5103059;28;20028;-77
2022/12/23 12:58:25;;;;;;;48.13;28.63;;;;;;;;;;5111782;28;20016;-76
2022/12/23 13:01:16;;;;;;;52.45;30.65;;;;;;;;;;5100768;28;20131;-77
2022/12/23 13:04:28;;;;;;;54.10;29.17;;;;;;;;;;5116307;28;20362;-76
2022/12/23 13:07:26;;;;;;;54.47;29.70;;;;;;;;;;5087031;28;20063;-77
2022/12/23 13:10:15;;;;;;;53.55;29.42;;;;;;;;;;5083226;28;20106;-77
2022/12/23 13:13:08;;;;;;;56.47;30.52;;;;;;;;;;5099112;28;20029;-76
2022/12/23 13:15:54;;;;;;;61.08;30.50;;;;;;;;;;5099403;28;20066;-76
2022/12/23 13:18:39;;;;;;;55.33;31.13;;;;;;;;;;5081687;28;20454;-76
2022/12/23 13:21:27;;;;;;;60.35;31.80;;;;;;;;;;5096844;28;20024;-75
2022/12/23 13:24:13;;;;;;;57.45;31.42;;;;;;;;;;5081479;28;20043;-76
2022/12/23 13:27:06;;;;;;;57.90;30.98;;;;;;;;;;5081112;28;20288;-76
2022/12/23 13:30:00;;;;;;;55.83;30.52;;;;;;;;;;5095444;28;20048;-77
2022/12/23 13:32:55;;;;;;;53.42;30.90;;;;;;;;;;5095730;28;20039;-77
2022/12/23 13:35:47;;;;;;;56.15;31.02;;;;;;;;;;5095731;28;20020;-77
2022/12/23 13:38:43;;;;;;;56.67;31.02;;;;;;;;;;5095341;28;20028;-77
2022/12/23 13:41:31;;;;;;;59.33;30.92;;;;;;;;;;5095758;28;20020;-78
2022/12/23 13:44:17;;;;;;;58.22;30.60;;;;;;;;;;5081386;28;20457;-77
2022/12/23 13:47:21;;;;;;;78.43;41.88;;;;;;;;;;5095010;28;20077;-77
2022/12/23 13:50:25;;;;;;;65.55;34.03;;;;;;;;;;5080095;28;20479;-76
2022/12/23 13:53:20;;;;;;;58.22;31.08;;;;;;;;;;5095322;28;20393;-77
2022/12/23 13:56:06;;;;;;;56.45;32.90;;;;;;;;;;5095448;28;20020;-77
2022/12/23 13:58:52;;;;;;;61.50;32.63;;;;;;;;;;5095108;28;20027;-77
2022/12/23 14:01:43;;;;;;;56.97;31.85;;;;;;;;;;5082330;28;20044;-78
2022/12/23 14:04:29;;;;;;;56.17;30.90;;;;;;;;;;5074793;28;20476;-77
2022/12/23 14:07:19;;;;;;;57.10;32.30;;;;;;;;;;5076056;28;20024;-78
2022/12/23 14:10:10;;;;;;;59.85;32.10;;;;;;;;;;5074752;28;20035;-76
2022/12/23 14:13:03;;;;;;;63.50;32.92;;;;;;;;;;5074353;28;20039;-77
2022/12/23 14:15:48;;;;;;;59.60;33.35;;;;;;;;;;5060805;28;20086;-76
2022/12/23 14:18:34;;;;;;;60.13;32.65;;;;;;;;;;5074774;28;20497;-76
2022/12/23 14:21:20;;;;;;;62.90;32.85;;;;;;;;;;5074605;28;20343;-77
2022/12/23 14:24:20;;;;;;;63.88;34.00;;;;;;;;;;5074655;28;20035;-76
2022/12/23 14:27:12;;;;;;;63.22;35.58;;;;;;;;;;5059685;28;20024;-76
2022/12/23 14:30:01;;;;;;;64.80;35.53;;;;;;;;;;5059871;28;20060;-77
2022/12/23 14:32:56;;;;;;;69.30;36.15;;;;;;;;;;5074707;28;20028;-77
2022/12/23 14:35:42;;;;;;;65.47;34.63;;;;;;;;;;5074491;28;20021;-77
2022/12/23 14:38:31;;;;;;;71.00;36.58;;;;;;;;;;5074580;28;20036;-77
2022/12/23 14:41:22;;;;;;;67.25;35.95;;;;;;;;;;5060037;28;20031;-77
2022/12/23 14:44:17;;;;;;;64.95;35.08;;;;;;;;;;5074290;28;20025;-77
2022/12/23 14:47:23;;;;;;;66.95;34.33;;;;;;;;;;5060190;28;20114;-76
2022/12/23 14:50:27;;;;;;;63.47;35.00;;;;;;;;;;5060162;28;20097;-76
2022/12/23 14:53:20;;;;;;;68.20;36.03;;;;;;;;;;5073846;28;20359;-77
2022/12/23 14:56:18;;;;;;;71.28;36.08;;;;;;;;;;5074145;28;20023;-77
2022/12/23 14:59:22;;;;;;;68.85;37.25;;;;;;;;;;5074006;28;20070;-79
2022/12/23 15:02:11;;;;;;;71.78;37.80;;;;;;;;;;5075762;28;20543;-77
2022/12/23 15:04:57;;;;;;;65.85;35.58;;;;;;;;;;5092170;28;20043;-78
2022/12/23 15:07:45;;;;;;;67.97;36.55;;;;;;;;;;5092698;28;20099;-77
2022/12/23 15:10:31;;;;;;;71.25;37.38;;;;;;;;;;5093490;28;20031;-77
2022/12/23 15:13:18;;;;;;;67.88;35.55;;;;;;;;;;5078422;28;20020;-77
2022/12/23 15:16:03;;;;;;;78.75;38.03;;;;;;;;;;5093454;28;20408;-77
2022/12/23 15:18:56;;;;;;;75.35;37.88;;;;;;;;;;5093448;28;20019;-76
2022/12/23 15:21:41;;;;;;;77.60;38.55;;;;;;;;;;5078479;28;20035;-77
2022/12/23 15:24:27;;;;;;;72.50;39.60;;;;;;;;;;5079277;28;20024;-77
2022/12/23 15:27:15;;;;;;;78.88;40.78;;;;;;;;;;5092834;28;20103;-77
2022/12/23 15:30:01;;;;;;;75.07;39.28;;;;;;;;;;5079152;28;20092;-77
2022/12/23 15:32:48;;;;;;;86.25;41.53;;;;;;;;;;5092242;28;20017;-77
2022/12/23 15:35:37;;;;;;;73.65;40.42;;;;;;;;;;5092981;28;20392;-77
2022/12/23 15:38:26;;;;;;;80.50;39.47;;;;;;;;;;5092376;28;20434;-77
2022/12/23 15:41:13;;;;;;;82.18;41.17;;;;;;;;;;5093019;28;20042;-77
2022/12/23 15:44:00;;;;;;;79.60;40.28;;;;;;;;;;5092492;28;20024;-76
2022/12/23 15:46:46;;;;;;;77.70;42.13;;;;;;;;;;5092913;28;20030;-77
2022/12/23 15:49:31;;;;;;;80.63;41.67;;;;;;;;;;5093039;28;20027;-76
2022/12/23 15:52:17;;;;;;;94.78;47.45;;;;;;;;;;5091973;28;20020;-76
2022/12/23 15:55:11;;;;;;;85.35;44.70;;;;;;;;;;5078562;28;20081;-76
2022/12/23 15:57:57;;;;;;;95.28;46.33;;;;;;;;;;5078647;28;20081;-77
2022/12/23 16:00:51;;;;;;;91.25;47.58;;;;;;;;;;5092539;28;20036;-77
2022/12/23 16:03:38;;;;;;;98.22;48.33;;;;;;;;;;5079289;28;20046;-76
2022/12/23 16:06:24;;;;;;;89.57;47.25;;;;;;;;;;5095289;28;20020;-76
2022/12/23 16:09:16;;;;;;;92.95;46.47;;;;;;;;;;5078660;28;20069;-78
2022/12/23 16:12:04;;;;;;;91.15;48.83;;;;;;;;;;5077401;28;20299;-78
2022/12/23 16:14:54;;;;;;;101.63;50.80;;;;;;;;;;5093376;28;20361;-76
2022/12/23 16:17:39;;;;;;;92.57;51.15;;;;;;;;;;5093035;28;20024;-77
2022/12/23 16:20:25;;;;;;;100.00;53.00;;;;;;;;;;5092746;28;20038;-77
2022/12/23 16:23:11;;;;;;;120.15;60.17;;;;;;;;;;5079074;28;20020;-76
2022/12/23 16:25:58;;;;;;;115.63;57.13;;;;;;;;;;5094394;28;20031;-77
2022/12/23 16:28:47;;;;;;;113.07;57.25;;;;;;;;;;5080932;28;20534;-77
2022/12/23 16:31:33;;;;;;;116.88;58.47;;;;;;;;;;5096425;28;20080;-76
2022/12/23 16:34:18;;;;;;;114.43;59.45;;;;;;;;;;5096255;28;20502;-77
2022/12/23 16:37:04;;;;;;;110.85;57.00;;;;;;;;;;5095738;28;20028;-77
2022/12/23 16:39:50;;;;;;;112.35;58.65;;;;;;;;;;5080616;28;20020;-77
2022/12/23 16:42:35;;;;;;;108.25;55.47;;;;;;;;;;5096731;28;20051;-77